createdAt,value
2017-07-22T00:00:28.726Z,11.80
2017-07-22T00:02:55.453Z,12.57
2017-07-22T00:05:21.409Z,11.57
2017-07-22T00:07:47.354Z,12.50
2017-07-22T00:10:13.369Z,12.10
2017-07-22T00:12:40.074Z,11.97
2017-07-22T00:15:06.065Z,12.93
2017-07-22T00:17:32.011Z,13.03
2017-07-22T00:19:58.692Z,12.80
2017-07-22T00:22:24.668Z,12.57
2017-07-22T00:24:50.645Z,13.53
2017-07-22T00:27:16.689Z,13.40
2017-07-22T00:29:42.632Z,14.50
2017-07-22T00:32:08.601Z,13.50
2017-07-22T00:34:34.617Z,12.83
2017-07-22T00:37:00.569Z,14.43
2017-07-22T00:39:26.542Z,13.80
2017-07-22T00:41:52.476Z,12.57
2017-07-22T00:44:18.412Z,12.40
2017-07-22T00:46:44.393Z,13.87
2017-07-22T00:49:10.332Z,12.33
2017-07-22T00:51:37.025Z,12.63
2017-07-22T00:54:03.009Z,11.77
2017-07-22T00:56:28.961Z,12.53
2017-07-22T00:58:54.932Z,11.50
2017-07-22T01:01:20.878Z,11.90
2017-07-22T01:03:46.860Z,12.23
2017-07-22T01:06:12.801Z,11.10
2017-07-22T01:08:39.484Z,12.20
2017-07-22T01:11:05.457Z,13.37
2017-07-22T01:13:31.408Z,12.47
2017-07-22T01:15:57.398Z,12.03
2017-07-22T01:18:23.337Z,14.07
2017-07-22T01:20:49.276Z,13.10
2017-07-22T01:23:15.246Z,14.10
2017-07-22T01:25:41.180Z,13.73
2017-07-22T01:28:07.887Z,12.47
2017-07-22T01:30:33.896Z,13.70
2017-07-22T01:32:59.866Z,12.27
2017-07-22T01:35:25.809Z,13.00
2017-07-22T01:37:51.792Z,12.17
2017-07-22T01:40:17.797Z,13.50
2017-07-22T01:42:43.777Z,12.33
2017-07-22T01:45:09.708Z,13.20
2017-07-22T01:47:36.391Z,13.90
2017-07-22T01:50:02.360Z,12.57
2017-07-22T01:52:28.292Z,12.87
2017-07-22T01:54:54.262Z,13.13
2017-07-22T01:57:20.949Z,12.90
2017-07-22T01:59:46.938Z,12.60
2017-07-22T02:02:12.945Z,12.93
2017-07-22T02:04:38.881Z,12.20
2017-07-22T02:07:04.813Z,13.10
2017-07-22T02:09:31.556Z,11.70
2017-07-22T02:11:57.496Z,13.20
2017-07-22T02:14:23.440Z,13.43
2017-07-22T02:16:49.422Z,12.20
2017-07-22T02:19:15.445Z,13.33
2017-07-22T02:21:41.376Z,12.37
2017-07-22T02:24:07.311Z,13.20
2017-07-22T02:26:33.272Z,12.80
2017-07-22T02:28:59.313Z,13.73
2017-07-22T02:31:26.005Z,12.93
2017-07-22T02:33:51.942Z,14.60
2017-07-22T02:36:17.926Z,12.43
2017-07-22T02:38:43.865Z,13.67
2017-07-22T02:41:09.800Z,12.73
2017-07-22T02:43:35.776Z,11.60
2017-07-22T02:46:01.713Z,12.40
2017-07-22T02:48:27.653Z,14.13
2017-07-22T02:50:53.628Z,13.40
2017-07-22T02:53:19.572Z,13.40
2017-07-22T02:55:45.535Z,12.13
2017-07-22T02:58:11.520Z,12.53
2017-07-22T03:00:37.461Z,13.83
2017-07-22T03:03:03.388Z,12.40
2017-07-22T03:05:29.376Z,12.60
2017-07-22T03:07:55.308Z,13.20
2017-07-22T03:10:21.245Z,14.37
2017-07-22T03:12:47.232Z,13.10
2017-07-22T03:15:13.180Z,12.83
2017-07-22T03:17:39.112Z,13.20
2017-07-22T03:20:05.849Z,12.13
2017-07-22T03:22:31.788Z,13.57
2017-07-22T03:24:57.721Z,11.70
2017-07-22T03:27:23.725Z,14.03
2017-07-22T03:29:49.660Z,13.63
2017-07-22T03:32:16.376Z,14.40
2017-07-22T03:34:42.344Z,13.30
2017-07-22T03:37:08.284Z,13.43
2017-07-22T03:39:34.272Z,13.87
2017-07-22T03:42:00.208Z,12.97
2017-07-22T03:44:26.205Z,13.67
2017-07-22T03:46:52.176Z,15.30
2017-07-22T03:49:18.118Z,13.60
2017-07-22T03:51:44.088Z,14.93
2017-07-22T03:54:10.076Z,14.43
2017-07-22T03:56:36.761Z,14.60
2017-07-22T03:59:02.709Z,14.57
2017-07-22T04:01:29.428Z,15.37
2017-07-22T04:03:56.107Z,13.67
2017-07-22T04:06:22.041Z,13.60
2017-07-22T04:08:48.032Z,13.57
2017-07-22T04:11:13.982Z,13.83
2017-07-22T04:13:40.664Z,12.73
2017-07-22T04:16:06.632Z,13.80
2017-07-22T04:18:32.569Z,12.67
2017-07-22T04:20:58.552Z,13.40
2017-07-22T04:23:24.486Z,13.93
2017-07-22T04:25:50.449Z,13.13
2017-07-22T04:28:16.444Z,13.90
2017-07-22T04:30:42.401Z,14.57
2017-07-22T04:33:08.384Z,13.23
2017-07-22T04:35:34.320Z,15.53
2017-07-22T04:38:00.255Z,12.90
2017-07-22T04:40:26.240Z,15.23
2017-07-22T04:42:52.205Z,14.07
2017-07-22T04:45:18.178Z,13.50
2017-07-22T04:47:44.120Z,15.10
2017-07-22T04:50:10.097Z,13.13
2017-07-22T04:52:36.024Z,13.67
2017-07-22T04:55:01.957Z,13.53
2017-07-22T04:57:27.971Z,13.50
2017-07-22T04:59:54.650Z,13.37
2017-07-22T05:02:20.674Z,13.70
2017-07-22T05:04:46.672Z,13.60
2017-07-22T05:07:12.639Z,13.27
2017-07-22T05:09:38.608Z,12.70
2017-07-22T05:12:04.545Z,12.83
2017-07-22T05:14:31.264Z,12.50
2017-07-22T05:16:57.944Z,13.93
2017-07-22T05:19:23.886Z,14.47
2017-07-22T05:21:49.876Z,13.87
2017-07-22T05:24:15.821Z,12.67
2017-07-22T05:26:42.560Z,13.67
2017-07-22T05:29:09.236Z,12.63
2017-07-22T05:31:35.170Z,13.50
2017-07-22T05:34:01.141Z,12.90
2017-07-22T05:36:27.088Z,12.33
2017-07-22T05:38:53.030Z,13.20
2017-07-22T05:41:19.048Z,12.20
2017-07-22T05:43:45.066Z,12.67
2017-07-22T05:46:11.017Z,11.43
2017-07-22T05:48:36.997Z,11.97
2017-07-22T05:51:02.972Z,11.33
2017-07-22T05:53:28.913Z,12.50
2017-07-22T05:55:54.881Z,11.13
2017-07-22T05:58:21.597Z,12.27
2017-07-22T06:00:48.283Z,12.10
2017-07-22T06:03:14.248Z,11.47
2017-07-22T06:05:40.180Z,12.37
2017-07-22T06:08:06.145Z,11.27
2017-07-22T06:10:32.080Z,12.30
2017-07-22T06:12:58.069Z,11.20
2017-07-22T06:15:24.004Z,11.57
2017-07-22T06:17:49.949Z,12.60
2017-07-22T06:20:16.665Z,12.93
2017-07-22T06:22:42.621Z,11.50
2017-07-22T06:25:08.586Z,11.53
2017-07-22T06:27:35.313Z,11.33
2017-07-22T06:30:01.996Z,11.70
2017-07-22T06:32:27.927Z,11.63
2017-07-22T06:34:53.920Z,11.13
2017-07-22T06:37:19.875Z,10.30
2017-07-22T06:39:46.622Z,10.93
2017-07-22T06:42:12.617Z,10.07
2017-07-22T06:44:38.557Z,10.57
2017-07-22T06:47:04.495Z,10.37
2017-07-22T06:49:30.461Z,10.57
2017-07-22T06:51:56.445Z,9.90
2017-07-22T06:54:22.400Z,10.37
2017-07-22T06:56:48.392Z,9.60
2017-07-22T06:59:14.364Z,9.53
2017-07-22T07:01:41.092Z,8.87
2017-07-22T07:04:07.770Z,9.80
2017-07-22T07:06:33.706Z,9.50
2017-07-22T07:08:59.680Z,9.60
2017-07-22T07:11:25.612Z,10.60
2017-07-22T07:13:51.576Z,9.27
2017-07-22T07:16:17.567Z,10.43
2017-07-22T07:18:43.509Z,9.60
2017-07-22T07:21:09.578Z,9.70
2017-07-22T07:23:35.553Z,9.97
2017-07-22T07:26:01.534Z,8.90
2017-07-22T07:28:27.520Z,10.47
2017-07-22T07:30:53.464Z,10.07
2017-07-22T07:33:19.428Z,9.43
2017-07-22T07:35:45.448Z,9.83
2017-07-22T07:38:11.394Z,9.90
2017-07-22T07:40:37.379Z,11.00
2017-07-22T07:43:03.317Z,10.43
2017-07-22T07:45:29.268Z,9.50
2017-07-22T07:47:55.248Z,9.33
2017-07-22T07:50:21.208Z,9.97
2017-07-22T07:52:47.188Z,9.03
2017-07-22T07:55:13.152Z,11.37
2017-07-22T07:57:39.154Z,10.13
2017-07-22T08:00:05.100Z,9.60
2017-07-22T08:02:31.785Z,10.13
2017-07-22T08:04:57.748Z,10.13
2017-07-22T08:07:23.695Z,10.60
2017-07-22T08:09:49.672Z,8.43
2017-07-22T08:12:15.665Z,9.13
2017-07-22T08:14:41.607Z,9.77
2017-07-22T08:17:07.545Z,9.20
2017-07-22T08:19:33.518Z,9.43
2017-07-22T08:21:59.508Z,8.93
2017-07-22T08:24:25.452Z,9.30
2017-07-22T08:26:51.430Z,9.77
2017-07-22T08:29:17.416Z,9.10
2017-07-22T08:31:43.393Z,9.50
2017-07-22T08:34:09.361Z,9.37
2017-07-22T08:36:35.686Z,9.40
2017-07-22T08:39:01.941Z,9.87
2017-07-22T08:41:27.871Z,9.40
2017-07-22T08:43:54.588Z,9.33
2017-07-22T08:46:21.269Z,9.00
2017-07-22T08:48:47.355Z,8.10
2017-07-22T08:51:13.292Z,8.97
2017-07-22T08:53:39.224Z,9.03
2017-07-22T08:56:05.212Z,8.93
2017-07-22T08:58:31.152Z,8.27
2017-07-22T09:00:57.085Z,9.73
2017-07-22T09:03:23.060Z,9.33
2017-07-22T09:05:49.021Z,9.13
2017-07-22T09:08:14.988Z,9.40
2017-07-22T09:10:41.665Z,9.53
2017-07-22T09:13:07.643Z,8.90
2017-07-22T09:15:33.577Z,8.30
2017-07-22T09:17:59.572Z,7.67
2017-07-22T09:20:25.541Z,8.07
2017-07-22T09:22:51.490Z,7.83
2017-07-22T09:25:17.484Z,7.70
2017-07-22T09:27:43.425Z,9.03
2017-07-22T09:30:09.358Z,8.30
2017-07-22T09:32:35.344Z,8.70
2017-07-22T09:35:01.277Z,8.43
2017-07-22T09:37:27.246Z,7.03
2017-07-22T09:39:53.333Z,8.60
2017-07-22T09:42:19.314Z,8.27
2017-07-22T09:44:45.256Z,8.47
2017-07-22T09:47:11.469Z,8.43
2017-07-22T09:49:37.460Z,8.20
2017-07-22T09:52:07.098Z,8.90
2017-07-22T09:54:33.249Z,7.13
2017-07-22T09:56:59.240Z,8.77
2017-07-22T09:59:25.181Z,9.37
2017-07-22T10:01:53.457Z,7.10
2017-07-22T10:04:19.453Z,8.17
2017-07-22T10:06:45.406Z,7.47
2017-07-22T10:09:12.289Z,8.90
2017-07-22T10:11:38.341Z,7.07
2017-07-22T10:14:04.289Z,5.77
2017-07-22T10:16:30.989Z,6.53
2017-07-22T10:18:56.989Z,7.43
2017-07-22T10:21:23.157Z,6.70
2017-07-22T10:23:49.103Z,7.40
2017-07-22T10:26:15.082Z,7.87
2017-07-22T10:28:41.027Z,7.90
2017-07-22T10:31:07.921Z,7.87
2017-07-22T10:33:33.912Z,7.87
2017-07-22T10:36:00.670Z,8.10
2017-07-22T10:38:26.632Z,7.60
2017-07-22T10:40:53.385Z,9.10
2017-07-22T10:43:19.417Z,8.43
2017-07-22T10:45:45.438Z,7.93
2017-07-22T10:48:11.424Z,7.80
2017-07-22T10:50:37.448Z,8.20
2017-07-22T10:53:03.385Z,7.73
2017-07-22T10:55:29.332Z,8.90
2017-07-22T10:57:55.324Z,6.50
2017-07-22T11:00:22.013Z,7.80
2017-07-22T11:02:48.002Z,7.17
2017-07-22T11:05:13.984Z,8.10
2017-07-22T11:07:39.924Z,7.90
2017-07-22T11:10:06.374Z,7.97
2017-07-22T11:12:32.385Z,7.30
2017-07-22T11:14:58.329Z,8.30
2017-07-22T11:17:24.287Z,8.27
2017-07-22T11:19:50.295Z,8.33
2017-07-22T11:22:18.049Z,8.00
2017-07-22T11:24:44.000Z,8.70
2017-07-22T11:27:09.985Z,7.87
2017-07-22T11:29:35.953Z,8.57
2017-07-22T11:32:02.023Z,8.50
2017-07-22T11:34:27.988Z,8.90
2017-07-22T11:36:54.009Z,9.47
2017-07-22T11:39:20.001Z,8.60
2017-07-22T11:41:45.956Z,8.03
2017-07-22T11:44:11.947Z,8.10
2017-07-22T11:46:37.933Z,7.87
2017-07-22T11:49:03.900Z,8.17
2017-07-22T11:51:29.848Z,7.63
2017-07-22T11:53:55.839Z,7.83
2017-07-22T11:56:21.843Z,7.20
2017-07-22T11:58:47.946Z,8.47
2017-07-22T12:01:13.982Z,8.80
2017-07-22T12:03:39.979Z,7.33
2017-07-22T12:06:05.963Z,8.83
2017-07-22T12:08:31.988Z,8.60
2017-07-22T12:10:58.817Z,8.13
2017-07-22T12:13:24.845Z,8.47
2017-07-22T12:15:50.798Z,7.97
2017-07-22T12:18:16.745Z,8.30
2017-07-22T12:20:42.728Z,8.63
2017-07-22T12:23:09.988Z,8.33
2017-07-22T12:25:36.006Z,8.60
2017-07-22T12:28:02.181Z,7.80
2017-07-22T12:30:28.169Z,7.47
2017-07-22T12:32:54.168Z,8.83
2017-07-22T12:35:20.853Z,9.07
2017-07-22T12:37:48.993Z,7.60
2017-07-22T12:40:14.971Z,9.03
2017-07-22T12:42:40.969Z,8.30
2017-07-22T12:45:07.705Z,9.13
2017-07-22T12:47:33.666Z,9.40
2017-07-22T12:49:59.605Z,9.50
2017-07-22T12:52:26.317Z,10.73
2017-07-22T12:54:52.257Z,9.00
2017-07-22T12:57:18.246Z,10.97
2017-07-22T12:59:44.199Z,8.03
2017-07-22T13:02:10.167Z,8.67
2017-07-22T13:04:36.897Z,9.17
2017-07-22T13:07:03.580Z,9.20
2017-07-22T13:09:29.510Z,7.50
2017-07-22T13:11:55.505Z,7.03
2017-07-22T13:14:21.484Z,5.33
2017-07-22T13:16:47.425Z,10.10
2017-07-22T13:19:13.420Z,9.40
2017-07-22T13:21:39.385Z,12.37
2017-07-22T13:24:05.357Z,12.20
2017-07-22T13:26:33.151Z,14.20
2017-07-22T13:29:00.880Z,15.27
2017-07-22T13:31:28.662Z,16.20
2017-07-22T13:33:56.405Z,18.20
2017-07-22T13:36:24.136Z,18.20
2017-07-22T13:38:51.904Z,20.10
2017-07-22T13:41:19.660Z,21.20
2017-07-22T13:43:47.393Z,21.27
2017-07-22T13:46:15.165Z,21.50
2017-07-22T13:48:42.892Z,22.70
2017-07-22T13:51:08.842Z,23.87
2017-07-22T13:53:34.893Z,20.80
2017-07-22T13:56:01.584Z,18.33
2017-07-22T13:58:27.529Z,21.03
2017-07-22T14:00:54.259Z,20.80
2017-07-22T14:03:20.953Z,19.53
2017-07-22T14:05:46.981Z,19.03
2017-07-22T14:08:13.674Z,20.77
2017-07-22T14:10:39.646Z,20.33
2017-07-22T14:13:05.638Z,20.60
2017-07-22T14:15:31.617Z,20.90
2017-07-22T14:17:57.552Z,16.40
2017-07-22T14:20:24.239Z,16.63
2017-07-22T14:22:50.262Z,16.47
2017-07-22T14:25:16.216Z,16.47
2017-07-22T14:27:43.694Z,15.83
2017-07-22T14:30:09.681Z,18.00
2017-07-22T14:32:35.633Z,16.50
2017-07-22T14:35:01.604Z,12.90
2017-07-22T14:37:27.576Z,15.63
2017-07-22T14:39:53.552Z,17.30
2017-07-22T14:42:19.513Z,15.17
2017-07-22T14:44:45.493Z,13.43
2017-07-22T14:47:12.190Z,12.80
2017-07-22T14:49:38.478Z,11.50
2017-07-22T14:52:04.429Z,10.20
2017-07-22T14:54:31.108Z,11.50
2017-07-22T14:56:57.089Z,10.83
2017-07-22T14:59:23.025Z,11.13
2017-07-22T15:01:48.969Z,11.07
2017-07-22T15:04:14.944Z,12.17
2017-07-22T15:06:40.893Z,10.70
2017-07-22T15:09:07.580Z,11.77
2017-07-22T15:11:33.614Z,12.80
2017-07-22T15:13:59.559Z,11.43
2017-07-22T15:16:25.722Z,10.73
2017-07-22T15:18:53.456Z,10.40
2017-07-22T15:21:21.179Z,9.67
2017-07-22T15:23:48.936Z,8.50
2017-07-22T15:26:16.663Z,9.77
2017-07-22T15:28:44.437Z,9.13
2017-07-22T15:31:12.166Z,8.93
2017-07-22T15:33:39.940Z,10.33
2017-07-22T15:36:07.737Z,11.50
2017-07-22T15:38:35.621Z,10.03
2017-07-22T15:41:03.408Z,10.20
2017-07-22T15:43:31.137Z,9.73
2017-07-22T15:45:58.863Z,10.07
2017-07-22T15:48:26.620Z,10.30
2017-07-22T15:50:54.344Z,11.00
2017-07-22T15:53:22.095Z,10.57
2017-07-22T15:55:49.869Z,11.30
2017-07-22T15:58:17.593Z,10.47
2017-07-22T16:00:45.320Z,10.77
2017-07-22T16:03:13.085Z,10.37
2017-07-22T16:05:40.824Z,10.60
2017-07-22T16:08:08.612Z,10.73
2017-07-22T16:10:36.368Z,10.67
2017-07-22T16:13:04.133Z,12.13
2017-07-22T16:15:31.864Z,10.67
2017-07-22T16:17:59.642Z,10.67
2017-07-22T16:20:27.396Z,12.00
2017-07-22T16:22:55.120Z,12.07
2017-07-22T16:25:22.888Z,12.40
2017-07-22T16:27:50.615Z,11.80
2017-07-22T16:30:18.391Z,12.73
2017-07-22T16:32:46.124Z,11.50
2017-07-22T16:35:13.879Z,12.07
2017-07-22T16:37:41.695Z,13.50
2017-07-22T16:40:09.423Z,13.30
2017-07-22T16:42:37.159Z,12.50
2017-07-22T16:45:05.217Z,12.37
2017-07-22T16:47:32.876Z,12.43
2017-07-22T16:50:00.624Z,11.60
2017-07-22T16:52:28.380Z,11.93
2017-07-22T16:54:56.139Z,11.90
2017-07-22T16:57:23.912Z,12.07
2017-07-22T16:59:51.689Z,13.07
2017-07-22T17:02:19.456Z,12.67
2017-07-22T17:04:47.188Z,13.33
2017-07-22T17:07:14.912Z,12.67
2017-07-22T17:09:42.672Z,12.63
2017-07-22T17:12:10.435Z,12.53
2017-07-22T17:14:38.152Z,11.80
2017-07-22T17:17:05.944Z,11.20
2017-07-22T17:19:33.672Z,11.57
2017-07-22T17:22:01.413Z,13.10
2017-07-22T17:24:30.220Z,12.50
2017-07-22T17:26:57.961Z,15.70
2017-07-22T17:29:25.688Z,12.07
2017-07-22T17:31:53.456Z,11.93
2017-07-22T17:34:21.212Z,11.80
2017-07-22T17:36:48.970Z,12.10
2017-07-22T17:39:16.731Z,12.20
2017-07-22T17:41:44.502Z,12.10
2017-07-22T17:44:12.240Z,15.00
2017-07-22T17:46:39.989Z,12.60
2017-07-22T17:49:07.731Z,12.73
2017-07-22T17:51:35.477Z,14.10
2017-07-22T17:54:03.204Z,12.60
2017-07-22T17:56:30.952Z,13.27
2017-07-22T17:58:58.696Z,13.43
2017-07-22T18:01:26.472Z,13.17
2017-07-22T18:03:54.222Z,13.40
2017-07-22T18:06:21.955Z,13.50
2017-07-22T18:08:49.696Z,13.63
2017-07-22T18:11:17.429Z,14.10
2017-07-22T18:13:45.164Z,14.50
2017-07-22T18:16:12.893Z,14.63
2017-07-22T18:18:40.641Z,14.13
2017-07-22T18:21:08.388Z,17.80
2017-07-22T18:23:36.112Z,16.20
2017-07-22T18:26:03.855Z,16.43
2017-07-22T18:28:31.593Z,16.73
2017-07-22T18:30:59.350Z,16.50
2017-07-22T18:33:27.086Z,15.77
2017-07-22T18:35:54.850Z,19.50
2017-07-22T18:38:22.575Z,17.17
2017-07-22T18:40:50.315Z,19.10
2017-07-22T18:43:18.035Z,17.20
2017-07-22T18:45:45.812Z,17.43
2017-07-22T18:48:13.531Z,19.27
2017-07-22T18:50:41.267Z,19.33
2017-07-22T18:53:09.036Z,25.43
2017-07-22T18:55:36.778Z,24.63
2017-07-22T18:58:02.732Z,22.27
2017-07-22T19:00:28.693Z,20.20
2017-07-22T19:02:54.633Z,21.10
2017-07-22T19:05:21.365Z,20.87
2017-07-22T19:07:47.304Z,20.93
2017-07-22T19:10:13.241Z,19.17
2017-07-22T19:12:39.244Z,20.83
2017-07-22T19:15:05.217Z,19.30
2017-07-22T19:17:31.209Z,19.43
2017-07-22T19:19:57.245Z,21.93
2017-07-22T19:22:23.213Z,21.30
2017-07-22T19:24:50.163Z,22.77
2017-07-22T19:27:16.116Z,21.53
2017-07-22T19:29:42.060Z,22.30
2017-07-22T19:32:09.149Z,21.40
2017-07-22T19:34:35.092Z,22.10
2017-07-22T19:37:01.052Z,24.07
2017-07-22T19:39:26.995Z,23.80
2017-07-22T19:41:52.974Z,21.57
2017-07-22T19:44:18.936Z,23.03
2017-07-22T19:46:45.637Z,22.00
2017-07-22T19:49:11.645Z,19.87
2017-07-22T19:51:37.605Z,19.83
2017-07-22T19:54:03.545Z,22.20
2017-07-22T19:56:29.516Z,20.97
2017-07-22T19:58:55.456Z,21.23
2017-07-22T20:01:21.438Z,19.50
2017-07-22T20:03:47.373Z,19.40
2017-07-22T20:06:13.329Z,21.07
2017-07-22T20:08:40.025Z,20.53
2017-07-22T20:11:05.956Z,21.57
2017-07-22T20:13:32.716Z,19.50
2017-07-22T20:15:58.672Z,19.80
2017-07-22T20:18:24.648Z,21.10
2017-07-22T20:20:50.581Z,20.83
2017-07-22T20:23:16.521Z,21.10
2017-07-22T20:25:43.217Z,22.37
2017-07-22T20:28:09.172Z,22.30
2017-07-22T20:30:36.945Z,22.47
2017-07-22T20:33:04.664Z,20.27
2017-07-22T20:35:32.388Z,21.80
2017-07-22T20:38:00.144Z,20.20
2017-07-22T20:40:27.995Z,21.10
2017-07-22T20:42:55.728Z,20.00
2017-07-22T20:45:23.508Z,19.33
2017-07-22T20:47:51.240Z,22.90
2017-07-22T20:50:18.960Z,21.83
2017-07-22T20:52:46.724Z,19.97
2017-07-22T20:55:14.444Z,21.27
2017-07-22T20:57:42.164Z,22.20
2017-07-22T21:00:09.923Z,22.60
2017-07-22T21:02:37.696Z,21.60
2017-07-22T21:05:05.444Z,23.43
2017-07-22T21:07:33.168Z,23.53
2017-07-22T21:10:00.934Z,23.30
2017-07-22T21:12:28.996Z,24.30
2017-07-22T21:14:56.724Z,24.60
2017-07-22T21:17:24.465Z,21.23
2017-07-22T21:19:52.232Z,24.03
2017-07-22T21:22:19.989Z,21.63
2017-07-22T21:24:47.712Z,22.80
2017-07-22T21:27:15.468Z,23.80
2017-07-22T21:29:43.191Z,24.00
2017-07-22T21:32:10.956Z,25.33
2017-07-22T21:34:38.684Z,26.33
2017-07-22T21:37:06.403Z,26.13
2017-07-22T21:39:34.171Z,26.47
2017-07-22T21:42:01.892Z,27.77
2017-07-22T21:44:29.624Z,27.20
2017-07-22T21:46:57.392Z,23.80
2017-07-22T21:49:25.172Z,27.33
2017-07-22T21:51:52.892Z,25.63
2017-07-22T21:54:20.649Z,25.43
2017-07-22T21:56:48.694Z,24.40
2017-07-22T21:59:16.410Z,24.50
2017-07-22T22:01:44.131Z,23.60
2017-07-22T22:04:11.890Z,21.97
2017-07-22T22:06:39.659Z,24.30
2017-07-22T22:09:07.420Z,22.03
2017-07-22T22:11:35.144Z,22.77
2017-07-22T22:14:02.872Z,21.10
2017-07-22T22:16:30.637Z,23.17
2017-07-22T22:18:58.381Z,24.20
2017-07-22T22:21:26.116Z,22.67
2017-07-22T22:23:53.881Z,24.30
2017-07-22T22:26:21.604Z,23.07
2017-07-22T22:28:49.368Z,23.20
2017-07-22T22:31:17.096Z,21.90
2017-07-22T22:33:44.825Z,22.83
2017-07-22T22:36:12.580Z,23.00
2017-07-22T22:38:40.341Z,21.73
2017-07-22T22:41:08.069Z,21.67
2017-07-22T22:43:35.787Z,20.90
2017-07-22T22:46:03.551Z,23.10
2017-07-22T22:48:31.267Z,22.03
2017-07-22T22:50:59.001Z,21.17
2017-07-22T22:53:26.816Z,22.67
2017-07-22T22:55:54.553Z,21.30
2017-07-22T22:58:22.316Z,21.43
2017-07-22T23:00:50.080Z,20.87
2017-07-22T23:03:17.799Z,22.63
2017-07-22T23:05:45.559Z,21.00
2017-07-22T23:08:13.360Z,23.07
2017-07-22T23:10:41.152Z,21.97
2017-07-22T23:13:08.905Z,21.33
2017-07-22T23:15:36.633Z,21.50
2017-07-22T23:18:04.398Z,19.70
2017-07-22T23:20:32.171Z,19.43
2017-07-22T23:22:59.899Z,21.33
2017-07-22T23:25:27.626Z,20.53
2017-07-22T23:27:55.412Z,22.23
2017-07-22T23:30:23.141Z,23.90
2017-07-22T23:32:50.883Z,23.67
2017-07-22T23:35:18.655Z,22.50
2017-07-22T23:37:46.388Z,22.30
2017-07-22T23:40:14.107Z,20.73
2017-07-22T23:42:41.900Z,20.50
2017-07-22T23:45:09.628Z,20.47
2017-07-22T23:47:37.391Z,20.00
2017-07-22T23:50:05.112Z,21.07
2017-07-22T23:52:32.876Z,19.63
2017-07-22T23:55:00.684Z,18.93
2017-07-22T23:57:28.407Z,20.60
2017-07-22T23:59:56.167Z,18.53
